createdAt,value
2018-09-25T00:00:08.501Z,2.30
2018-09-25T00:01:08.477Z,2.10
2018-09-25T00:02:08.451Z,2.20
2018-09-25T00:03:08.427Z,2.40
2018-09-25T00:04:08.403Z,2.20
2018-09-25T00:05:08.380Z,2.20
2018-09-25T00:06:08.357Z,2.20
2018-09-25T00:07:08.330Z,2.60
2018-09-25T00:08:08.306Z,2.60
2018-09-25T00:09:08.281Z,2.70
2018-09-25T00:10:08.263Z,2.40
2018-09-25T00:11:08.232Z,2.50
2018-09-25T00:12:08.208Z,2.50
2018-09-25T00:13:08.184Z,2.20
2018-09-25T00:14:08.160Z,2.50
2018-09-25T00:15:08.135Z,2.30
2018-09-25T00:16:08.111Z,2.70
2018-09-25T00:17:08.086Z,2.70
2018-09-25T00:18:08.061Z,2.30
2018-09-25T00:19:08.038Z,2.30
2018-09-25T00:20:08.013Z,2.40
2018-09-25T00:21:07.989Z,2.40
2018-09-25T00:22:07.964Z,2.30
2018-09-25T00:23:07.939Z,2.40
2018-09-25T00:24:07.916Z,2.30
2018-09-25T00:25:07.890Z,2.40
2018-09-25T00:26:07.865Z,2.40
2018-09-25T00:27:07.842Z,2.40
2018-09-25T00:28:07.818Z,2.90
2018-09-25T00:29:07.793Z,2.60
2018-09-25T00:30:07.768Z,2.20
2018-09-25T00:31:07.743Z,2.80
2018-09-25T00:32:07.719Z,2.60
2018-09-25T00:33:07.694Z,2.60
2018-09-25T00:34:07.668Z,2.40
2018-09-25T00:35:07.645Z,2.30
2018-09-25T00:36:07.621Z,2.40
2018-09-25T00:37:07.596Z,2.30
2018-09-25T00:38:07.570Z,2.70
2018-09-25T00:39:07.546Z,2.10
2018-09-25T00:40:07.522Z,2.50
2018-09-25T00:41:07.497Z,2.40
2018-09-25T00:42:07.472Z,2.40
2018-09-25T00:43:07.479Z,2.40
2018-09-25T00:44:07.423Z,2.50
2018-09-25T00:45:07.400Z,2.30
2018-09-25T00:46:07.373Z,2.50
2018-09-25T00:47:07.379Z,2.30
2018-09-25T00:48:07.327Z,2.10
2018-09-25T00:49:07.300Z,2.60
2018-09-25T00:50:07.275Z,2.40
2018-09-25T00:51:07.250Z,2.10
2018-09-25T00:52:07.226Z,2.40
2018-09-25T00:53:07.201Z,2.20
2018-09-25T00:54:07.178Z,2.30
2018-09-25T00:55:07.151Z,2.60
2018-09-25T00:56:07.127Z,2.40
2018-09-25T00:57:09.453Z,2.90
2018-09-25T00:58:07.077Z,2.30
2018-09-25T00:59:07.053Z,2.70
2018-09-25T01:00:07.029Z,2.20
2018-09-25T01:01:07.004Z,2.50
2018-09-25T01:02:06.977Z,2.40
2018-09-25T01:03:06.952Z,2.70
2018-09-25T01:04:06.929Z,2.40
2018-09-25T01:05:06.904Z,2.40
2018-09-25T01:06:06.877Z,2.40
2018-09-25T01:07:06.853Z,2.50
2018-09-25T01:08:06.829Z,2.30
2018-09-25T01:09:06.803Z,2.40
2018-09-25T01:10:06.779Z,2.50
2018-09-25T01:11:06.753Z,2.60
2018-09-25T01:12:06.728Z,2.70
2018-09-25T01:13:06.704Z,2.30
2018-09-25T01:14:06.679Z,2.30
2018-09-25T01:15:06.654Z,2.50
2018-09-25T01:16:06.630Z,2.60
2018-09-25T01:17:06.605Z,2.40
2018-09-25T01:18:06.579Z,2.50
2018-09-25T01:19:06.618Z,2.50
2018-09-25T01:20:06.531Z,2.60
2018-09-25T01:21:06.504Z,2.50
2018-09-25T01:22:06.478Z,2.80
2018-09-25T01:23:06.454Z,2.40
2018-09-25T01:24:07.931Z,2.60
2018-09-25T01:25:06.404Z,2.30
2018-09-25T01:26:06.378Z,2.50
2018-09-25T01:27:06.353Z,2.70
2018-09-25T01:28:06.329Z,2.50
2018-09-25T01:29:06.303Z,2.80
2018-09-25T01:30:07.028Z,2.70
2018-09-25T01:31:06.253Z,2.30
2018-09-25T01:32:06.228Z,2.60
2018-09-25T01:33:06.207Z,2.70
2018-09-25T01:34:06.177Z,2.50
2018-09-25T01:35:06.152Z,2.80
2018-09-25T01:36:06.127Z,2.70
2018-09-25T01:37:06.105Z,2.40
2018-09-25T01:38:06.076Z,2.70
2018-09-25T01:39:06.050Z,2.70
2018-09-25T01:40:06.028Z,2.40
2018-09-25T01:41:06.003Z,2.90
2018-09-25T01:42:05.976Z,2.90
2018-09-25T01:43:05.950Z,3.20
2018-09-25T01:44:05.926Z,3.10
2018-09-25T01:45:05.902Z,3.00
2018-09-25T01:46:06.624Z,2.60
2018-09-25T01:47:05.849Z,2.60
2018-09-25T01:48:05.824Z,2.70
2018-09-25T01:49:05.800Z,2.70
2018-09-25T01:50:05.773Z,2.90
2018-09-25T01:51:05.751Z,2.80
2018-09-25T01:52:05.724Z,2.80
2018-09-25T01:53:05.700Z,2.80
2018-09-25T01:54:05.673Z,3.10
2018-09-25T01:55:05.649Z,3.00
2018-09-25T01:56:05.623Z,2.80
2018-09-25T01:57:05.598Z,2.80
2018-09-25T01:58:05.572Z,2.70
2018-09-25T01:59:05.548Z,3.10
2018-09-25T02:00:05.523Z,3.00
2018-09-25T02:01:05.499Z,3.20
2018-09-25T02:02:05.470Z,2.60
2018-09-25T02:03:05.445Z,2.90
2018-09-25T02:04:05.420Z,2.80
2018-09-25T02:05:05.395Z,2.90
2018-09-25T02:06:05.369Z,2.90
2018-09-25T02:07:05.343Z,2.90
2018-09-25T02:08:05.318Z,2.70
2018-09-25T02:09:05.293Z,2.60
2018-09-25T02:10:05.267Z,2.50
2018-09-25T02:11:05.241Z,3.10
2018-09-25T02:12:05.217Z,3.00
2018-09-25T02:13:05.192Z,3.00
2018-09-25T02:14:05.165Z,2.90
2018-09-25T02:15:05.141Z,2.90
2018-09-25T02:16:05.116Z,2.60
2018-09-25T02:17:05.091Z,2.70
2018-09-25T02:18:05.063Z,3.10
2018-09-25T02:19:05.039Z,2.90
2018-09-25T02:20:05.013Z,2.60
2018-09-25T02:21:04.988Z,2.80
2018-09-25T02:22:04.962Z,2.90
2018-09-25T02:23:05.687Z,3.00
2018-09-25T02:24:04.911Z,2.60
2018-09-25T02:25:04.886Z,2.80
2018-09-25T02:26:04.859Z,2.60
2018-09-25T02:27:04.834Z,2.50
2018-09-25T02:28:04.810Z,2.40
2018-09-25T02:29:04.784Z,2.80
2018-09-25T02:30:04.758Z,2.60
2018-09-25T02:31:04.744Z,2.70
2018-09-25T02:32:04.708Z,2.90
2018-09-25T02:33:04.682Z,2.80
2018-09-25T02:34:04.657Z,2.80
2018-09-25T02:35:04.630Z,2.80
2018-09-25T02:36:04.607Z,2.50
2018-09-25T02:37:04.581Z,2.30
2018-09-25T02:38:04.556Z,2.60
2018-09-25T02:39:04.528Z,2.30
2018-09-25T02:40:04.503Z,2.40
2018-09-25T02:41:04.479Z,2.70
2018-09-25T02:42:04.452Z,2.60
2018-09-25T02:43:04.430Z,2.40
2018-09-25T02:44:05.903Z,2.00
2018-09-25T02:45:04.380Z,2.60
2018-09-25T02:46:04.350Z,2.60
2018-09-25T02:47:04.324Z,2.50
2018-09-25T02:48:04.300Z,2.30
2018-09-25T02:49:04.274Z,2.60
2018-09-25T02:50:04.249Z,2.60
2018-09-25T02:51:04.230Z,2.40
2018-09-25T02:52:04.199Z,2.70
2018-09-25T02:53:04.174Z,2.70
2018-09-25T02:54:04.148Z,2.70
2018-09-25T02:55:04.121Z,2.50
2018-09-25T02:56:04.097Z,2.70
2018-09-25T02:57:04.072Z,2.60
2018-09-25T02:58:04.044Z,2.60
2018-09-25T02:59:04.019Z,2.80
2018-09-25T03:00:03.994Z,2.60
2018-09-25T03:01:03.970Z,2.80
2018-09-25T03:02:03.944Z,2.90
2018-09-25T03:03:03.917Z,3.10
2018-09-25T03:04:03.897Z,2.40
2018-09-25T03:05:03.870Z,2.60
2018-09-25T03:06:04.591Z,2.40
2018-09-25T03:07:03.815Z,2.80
2018-09-25T03:08:03.790Z,2.90
2018-09-25T03:09:03.764Z,2.60
2018-09-25T03:10:03.740Z,3.10
2018-09-25T03:11:03.712Z,2.60
2018-09-25T03:12:03.687Z,2.60
2018-09-25T03:13:03.662Z,2.30
2018-09-25T03:14:03.636Z,2.40
2018-09-25T03:15:03.617Z,2.60
2018-09-25T03:16:03.589Z,2.70
2018-09-25T03:17:03.565Z,2.70
2018-09-25T03:18:03.538Z,2.20
2018-09-25T03:19:03.508Z,2.60
2018-09-25T03:20:03.483Z,2.70
2018-09-25T03:21:03.457Z,2.50
2018-09-25T03:22:03.433Z,2.40
2018-09-25T03:23:03.405Z,2.40
2018-09-25T03:24:03.448Z,2.70
2018-09-25T03:25:03.361Z,2.50
2018-09-25T03:26:03.333Z,2.50
2018-09-25T03:27:03.304Z,2.30
2018-09-25T03:28:03.277Z,2.70
2018-09-25T03:29:03.254Z,2.40
2018-09-25T03:30:03.227Z,2.20
2018-09-25T03:31:03.202Z,2.60
2018-09-25T03:32:03.175Z,2.40
2018-09-25T03:33:03.149Z,2.60
2018-09-25T03:34:03.123Z,2.30
2018-09-25T03:35:03.099Z,3.00
2018-09-25T03:36:03.074Z,2.40
2018-09-25T03:37:03.047Z,2.60
2018-09-25T03:38:03.021Z,2.70
2018-09-25T03:39:02.997Z,2.30
2018-09-25T03:40:02.973Z,2.40
2018-09-25T03:41:02.945Z,2.50
2018-09-25T03:42:02.920Z,2.20
2018-09-25T03:43:02.894Z,2.90
2018-09-25T03:44:02.869Z,2.60
2018-09-25T03:45:02.843Z,2.90
2018-09-25T03:46:02.815Z,2.60
2018-09-25T03:47:02.791Z,2.70
2018-09-25T03:48:02.767Z,2.50
2018-09-25T03:49:02.740Z,2.80
2018-09-25T03:50:02.713Z,2.40
2018-09-25T03:51:02.689Z,2.90
2018-09-25T03:52:02.662Z,2.80
2018-09-25T03:53:02.637Z,2.70
2018-09-25T03:54:02.649Z,3.10
2018-09-25T03:55:02.587Z,2.70
2018-09-25T03:56:02.561Z,3.10
2018-09-25T03:57:02.539Z,3.20
2018-09-25T03:58:02.510Z,2.40
2018-09-25T03:59:02.485Z,2.40
2018-09-25T04:00:02.458Z,2.70
2018-09-25T04:01:02.432Z,3.00
2018-09-25T04:02:02.406Z,2.40
2018-09-25T04:03:02.381Z,2.60
2018-09-25T04:04:02.357Z,2.60
2018-09-25T04:05:02.335Z,2.70
2018-09-25T04:06:02.317Z,2.80
2018-09-25T04:07:02.279Z,2.60
2018-09-25T04:08:02.255Z,2.50
2018-09-25T04:09:02.228Z,3.00
2018-09-25T04:10:02.202Z,3.10
2018-09-25T04:11:02.176Z,2.90
2018-09-25T04:12:02.152Z,2.50
2018-09-25T04:13:02.127Z,2.80
2018-09-25T04:14:02.100Z,3.10
2018-09-25T04:15:02.073Z,3.30
2018-09-25T04:16:02.049Z,2.90
2018-09-25T04:17:02.023Z,2.90
2018-09-25T04:18:02.006Z,3.00
2018-09-25T04:19:01.972Z,3.10
2018-09-25T04:20:02.696Z,2.70
2018-09-25T04:21:01.921Z,2.60
2018-09-25T04:22:01.901Z,2.50
2018-09-25T04:23:01.870Z,2.90
2018-09-25T04:24:01.843Z,3.50
2018-09-25T04:25:01.826Z,3.10
2018-09-25T04:26:01.791Z,2.70
2018-09-25T04:27:01.766Z,2.70
2018-09-25T04:28:01.740Z,3.00
2018-09-25T04:29:01.717Z,3.60
2018-09-25T04:30:01.692Z,2.70
2018-09-25T04:31:01.663Z,2.70
2018-09-25T04:32:01.637Z,2.70
2018-09-25T04:33:01.612Z,3.10
2018-09-25T04:34:01.587Z,2.80
2018-09-25T04:35:01.561Z,2.90
2018-09-25T04:36:01.536Z,3.00
2018-09-25T04:37:01.527Z,3.00
2018-09-25T04:38:01.482Z,2.80
2018-09-25T04:39:01.457Z,3.10
2018-09-25T04:40:01.442Z,2.80
2018-09-25T04:41:01.406Z,2.80
2018-09-25T04:42:01.380Z,3.20
2018-09-25T04:43:01.359Z,3.00
2018-09-25T04:44:01.328Z,3.30
2018-09-25T04:45:01.308Z,2.90
2018-09-25T04:46:01.276Z,3.10
2018-09-25T04:47:01.286Z,3.10
2018-09-25T04:48:01.226Z,3.00
2018-09-25T04:49:01.200Z,3.20
2018-09-25T04:50:01.172Z,2.70
2018-09-25T04:51:01.147Z,2.80
2018-09-25T04:52:01.124Z,3.00
2018-09-25T04:53:01.096Z,3.30
2018-09-25T04:54:01.069Z,3.20
2018-09-25T04:55:01.043Z,3.00
2018-09-25T04:56:01.018Z,3.00
2018-09-25T04:57:00.997Z,3.10
2018-09-25T04:58:00.987Z,3.00
2018-09-25T04:59:00.940Z,3.10
2018-09-25T05:00:00.916Z,3.30
2018-09-25T05:01:00.889Z,2.90
2018-09-25T05:02:00.862Z,3.20
2018-09-25T05:03:00.838Z,3.20
2018-09-25T05:04:00.812Z,3.00
2018-09-25T05:05:00.787Z,3.00
2018-09-25T05:06:00.759Z,3.10
2018-09-25T05:07:00.734Z,3.10
2018-09-25T05:08:00.710Z,2.70
2018-09-25T05:09:00.682Z,2.60
2018-09-25T05:10:00.657Z,3.00
2018-09-25T05:11:00.630Z,2.90
2018-09-25T05:12:00.610Z,2.70
2018-09-25T05:13:00.582Z,2.80
2018-09-25T05:14:00.553Z,2.70
2018-09-25T05:15:00.527Z,2.80
2018-09-25T05:16:00.503Z,3.20
2018-09-25T05:17:00.476Z,3.20
2018-09-25T05:18:00.455Z,3.00
2018-09-25T05:19:00.424Z,3.40
2018-09-25T05:20:00.399Z,3.10
2018-09-25T05:21:00.373Z,3.00
2018-09-25T05:22:00.352Z,3.10
2018-09-25T05:23:00.321Z,2.70
2018-09-25T05:24:00.297Z,3.10
2018-09-25T05:25:00.313Z,2.80
2018-09-25T05:26:00.244Z,2.90
2018-09-25T05:27:00.219Z,2.70
2018-09-25T05:28:00.193Z,2.90
2018-09-25T05:29:00.168Z,3.00
2018-09-25T05:30:00.142Z,2.90
2018-09-25T05:31:00.116Z,3.30
2018-09-25T05:32:00.091Z,3.20
2018-09-25T05:33:00.066Z,2.60
2018-09-25T05:34:00.039Z,3.10
2018-09-25T05:35:00.013Z,3.30
2018-09-25T05:35:59.988Z,3.50
2018-09-25T05:36:59.962Z,3.30
2018-09-25T05:37:59.936Z,3.10
2018-09-25T05:38:59.913Z,3.60
2018-09-25T05:39:59.886Z,3.20
2018-09-25T05:40:59.900Z,2.90
2018-09-25T05:41:59.839Z,3.30
2018-09-25T05:42:59.808Z,3.30
2018-09-25T05:43:59.782Z,3.20
2018-09-25T05:44:59.767Z,3.40
2018-09-25T05:45:59.734Z,3.20
2018-09-25T05:46:59.718Z,3.10
2018-09-25T05:47:59.739Z,3.00
2018-09-25T05:48:59.834Z,3.00
2018-09-25T05:49:59.631Z,2.80
2018-09-25T05:51:03.359Z,3.30
2018-09-25T05:51:59.580Z,3.10
2018-09-25T05:52:59.555Z,3.00
2018-09-25T05:53:59.528Z,3.20
2018-09-25T05:54:59.502Z,3.60
2018-09-25T05:55:59.478Z,3.90
2018-09-25T05:56:59.453Z,3.50
2018-09-25T05:57:59.426Z,3.50
2018-09-25T05:58:59.402Z,3.60
2018-09-25T05:59:59.377Z,3.60
2018-09-25T06:00:59.467Z,3.30
2018-09-25T06:01:59.326Z,3.00
2018-09-25T06:02:59.302Z,2.90
2018-09-25T06:03:59.275Z,3.30
2018-09-25T06:04:59.250Z,3.20
2018-09-25T06:05:59.227Z,3.30
2018-09-25T06:06:59.203Z,3.40
2018-09-25T06:07:59.187Z,3.30
2018-09-25T06:08:59.150Z,3.40
2018-09-25T06:09:59.122Z,3.40
2018-09-25T06:10:59.097Z,3.60
2018-09-25T06:11:59.072Z,3.00
2018-09-25T06:12:59.049Z,3.20
2018-09-25T06:13:59.021Z,3.30
2018-09-25T06:14:58.997Z,3.10
2018-09-25T06:15:58.972Z,3.00
2018-09-25T06:16:58.946Z,3.00
2018-09-25T06:18:04.925Z,3.40
2018-09-25T06:18:58.897Z,3.40
2018-09-25T06:19:58.870Z,3.50
2018-09-25T06:20:58.846Z,3.30
2018-09-25T06:21:58.820Z,3.10
2018-09-25T06:22:58.872Z,3.40
2018-09-25T06:24:02.523Z,3.20
2018-09-25T06:24:58.744Z,3.60
2018-09-25T06:25:58.720Z,3.10
2018-09-25T06:26:58.694Z,3.10
2018-09-25T06:27:58.671Z,2.70
2018-09-25T06:28:58.644Z,3.20
2018-09-25T06:29:58.619Z,3.20
2018-09-25T06:30:58.594Z,3.40
2018-09-25T06:31:58.569Z,3.00
2018-09-25T06:32:58.544Z,3.60
2018-09-25T06:33:58.519Z,3.20
2018-09-25T06:34:58.592Z,3.90
2018-09-25T06:35:58.468Z,3.70
2018-09-25T06:36:58.453Z,3.60
2018-09-25T06:37:58.418Z,3.30
2018-09-25T06:38:58.395Z,3.10
2018-09-25T06:39:58.371Z,3.00
2018-09-25T06:40:58.468Z,3.60
2018-09-25T06:41:58.319Z,3.10
2018-09-25T06:42:58.293Z,3.30
2018-09-25T06:43:58.269Z,3.20
2018-09-25T06:44:58.244Z,3.40
2018-09-25T06:45:58.218Z,3.60
2018-09-25T06:46:58.193Z,3.60
2018-09-25T06:47:58.169Z,3.40
2018-09-25T06:48:58.145Z,3.30
2018-09-25T06:49:58.120Z,3.60
2018-09-25T06:50:58.096Z,3.30
2018-09-25T06:51:58.071Z,4.50
2018-09-25T06:52:58.052Z,3.20
2018-09-25T06:53:58.021Z,3.40
2018-09-25T06:54:58.094Z,3.70
2018-09-25T06:55:57.972Z,3.40
2018-09-25T06:56:57.946Z,3.60
2018-09-25T06:57:57.922Z,3.50
2018-09-25T06:58:57.896Z,3.90
2018-09-25T06:59:57.871Z,3.30
2018-09-25T07:00:57.865Z,4.20
2018-09-25T07:01:57.824Z,3.40
2018-09-25T07:02:57.798Z,3.20
2018-09-25T07:03:57.772Z,3.10
2018-09-25T07:04:57.748Z,3.30
2018-09-25T07:05:57.723Z,3.50
2018-09-25T07:06:57.698Z,3.60
2018-09-25T07:07:57.674Z,3.70
2018-09-25T07:08:57.651Z,3.80
2018-09-25T07:09:57.727Z,3.20
2018-09-25T07:10:57.601Z,3.30
2018-09-25T07:11:57.576Z,3.80
2018-09-25T07:12:57.552Z,3.60
2018-09-25T07:13:57.527Z,3.70
2018-09-25T07:14:57.507Z,3.70
2018-09-25T07:15:57.479Z,3.80
2018-09-25T07:16:57.454Z,3.60
2018-09-25T07:17:57.457Z,3.80
2018-09-25T07:18:57.405Z,4.00
2018-09-25T07:19:57.381Z,3.70
2018-09-25T07:20:57.357Z,4.20
2018-09-25T07:21:57.331Z,3.70
2018-09-25T07:22:57.306Z,4.10
2018-09-25T07:23:57.282Z,3.80
2018-09-25T07:24:57.302Z,4.30
2018-09-25T07:25:57.232Z,4.00
2018-09-25T07:26:57.208Z,4.00
2018-09-25T07:27:57.185Z,3.90
2018-09-25T07:28:57.162Z,4.10
2018-09-25T07:29:57.137Z,4.00
2018-09-25T07:30:57.117Z,4.20
2018-09-25T07:31:57.089Z,4.00
2018-09-25T07:32:57.814Z,4.20
2018-09-25T07:33:57.040Z,3.90
2018-09-25T07:34:57.017Z,3.90
2018-09-25T07:35:56.991Z,4.20
2018-09-25T07:36:56.967Z,3.90
2018-09-25T07:37:56.941Z,3.80
2018-09-25T07:38:56.919Z,4.10
2018-09-25T07:39:56.894Z,4.30
2018-09-25T07:40:56.870Z,4.00
2018-09-25T07:41:56.845Z,4.10
2018-09-25T07:42:56.822Z,3.80
2018-09-25T07:43:56.797Z,4.00
2018-09-25T07:44:56.773Z,4.10
2018-09-25T07:45:56.748Z,3.90
2018-09-25T07:46:56.724Z,4.30
2018-09-25T07:47:56.700Z,3.80
2018-09-25T07:48:56.677Z,4.20
2018-09-25T07:49:56.656Z,3.70
2018-09-25T07:50:56.628Z,4.50
2018-09-25T07:51:56.605Z,3.90
2018-09-25T07:52:56.582Z,3.90
2018-09-25T07:53:56.555Z,4.10
2018-09-25T07:54:56.532Z,3.90
2018-09-25T07:55:56.514Z,3.70
2018-09-25T07:56:56.484Z,3.40
2018-09-25T07:57:56.459Z,4.00
2018-09-25T07:58:56.436Z,3.70
2018-09-25T07:59:56.412Z,4.20
2018-09-25T08:00:56.388Z,3.60
2018-09-25T08:01:56.365Z,4.10
2018-09-25T08:02:56.343Z,4.20
2018-09-25T08:03:56.318Z,3.80
2018-09-25T08:04:56.293Z,3.90
2018-09-25T08:05:56.269Z,4.00
2018-09-25T08:06:56.245Z,4.30
2018-09-25T08:07:56.222Z,3.70
2018-09-25T08:08:56.215Z,3.80
2018-09-25T08:09:56.175Z,3.90
2018-09-25T08:10:56.150Z,3.70
2018-09-25T08:11:56.127Z,4.00
2018-09-25T08:12:56.104Z,4.20
2018-09-25T08:13:56.078Z,4.10
2018-09-25T08:14:56.055Z,4.40
2018-09-25T08:15:56.031Z,3.80
2018-09-25T08:16:56.009Z,3.90
2018-09-25T08:17:55.983Z,3.80
2018-09-25T08:18:55.959Z,4.10
2018-09-25T08:19:55.937Z,4.00
2018-09-25T08:20:56.665Z,4.20
2018-09-25T08:21:55.889Z,3.80
2018-09-25T08:22:55.865Z,3.80
2018-09-25T08:23:55.879Z,3.90
2018-09-25T08:24:55.818Z,4.00
2018-09-25T08:25:55.797Z,4.00
2018-09-25T08:26:55.776Z,4.10
2018-09-25T08:27:55.748Z,3.90
2018-09-25T08:28:55.727Z,4.70
2018-09-25T08:29:55.703Z,4.10
2018-09-25T08:30:55.679Z,4.10
2018-09-25T08:31:55.655Z,4.40
2018-09-25T08:32:55.631Z,3.90
2018-09-25T08:33:55.606Z,4.20
2018-09-25T08:34:55.600Z,4.30
2018-09-25T08:35:55.560Z,3.90
2018-09-25T08:36:55.536Z,4.10
2018-09-25T08:37:55.512Z,4.00
2018-09-25T08:38:55.515Z,3.90
2018-09-25T08:39:55.465Z,3.80
2018-09-25T08:40:55.442Z,4.00
2018-09-25T08:41:55.417Z,3.70
2018-09-25T08:42:55.395Z,4.10
2018-09-25T08:43:55.373Z,4.00
2018-09-25T08:44:55.348Z,3.90
2018-09-25T08:45:55.416Z,4.00
2018-09-25T08:46:56.054Z,3.90
2018-09-25T08:47:55.277Z,3.90
2018-09-25T08:48:55.277Z,4.00
2018-09-25T08:49:55.230Z,3.80
2018-09-25T08:50:55.207Z,3.40
2018-09-25T08:51:55.187Z,3.70
2018-09-25T08:52:55.160Z,4.20
2018-09-25T08:53:55.137Z,4.00
2018-09-25T08:54:55.115Z,3.70
2018-09-25T08:55:55.092Z,4.00
2018-09-25T08:56:55.067Z,3.80
2018-09-25T08:57:55.044Z,3.70
2018-09-25T08:58:55.021Z,3.80
2018-09-25T08:59:54.999Z,3.70
2018-09-25T09:00:55.040Z,3.90
2018-09-25T09:01:54.956Z,3.50
2018-09-25T09:02:54.929Z,3.60
2018-09-25T09:03:54.908Z,3.70
2018-09-25T09:04:54.882Z,3.40
2018-09-25T09:05:54.858Z,3.50
2018-09-25T09:06:54.836Z,3.40
2018-09-25T09:07:54.812Z,3.70
2018-09-25T09:08:54.791Z,3.90
2018-09-25T09:09:54.766Z,3.70
2018-09-25T09:10:54.742Z,3.50
2018-09-25T09:11:54.724Z,3.40
2018-09-25T09:12:54.699Z,3.40
2018-09-25T09:13:54.673Z,3.30
2018-09-25T09:14:54.651Z,4.00
2018-09-25T09:15:54.628Z,3.80
2018-09-25T09:16:54.607Z,3.30
2018-09-25T09:17:54.582Z,3.30
2018-09-25T09:18:54.559Z,3.70
2018-09-25T09:19:54.557Z,3.40
2018-09-25T09:20:54.516Z,3.40
2018-09-25T09:21:54.492Z,3.60
2018-09-25T09:22:54.470Z,3.30
2018-09-25T09:23:54.447Z,3.80
2018-09-25T09:24:54.424Z,3.30
2018-09-25T09:25:54.401Z,3.60
2018-09-25T09:26:54.377Z,3.20
2018-09-25T09:27:54.355Z,3.60
2018-09-25T09:28:54.340Z,3.40
2018-09-25T09:29:55.810Z,3.10
2018-09-25T09:30:54.287Z,3.00
2018-09-25T09:31:54.263Z,3.80
2018-09-25T09:32:54.241Z,3.80
2018-09-25T09:33:54.217Z,3.40
2018-09-25T09:34:54.195Z,3.50
2018-09-25T09:35:57.174Z,3.30
2018-09-25T09:36:54.149Z,3.50
2018-09-25T09:37:54.126Z,3.20
2018-09-25T09:38:54.103Z,3.90
2018-09-25T09:39:54.081Z,3.60
2018-09-25T09:40:54.079Z,3.80
2018-09-25T09:41:55.170Z,3.50
2018-09-25T09:42:54.012Z,3.40
2018-09-25T09:43:53.991Z,3.50
2018-09-25T09:44:53.966Z,3.60
2018-09-25T09:45:53.942Z,3.60
2018-09-25T09:46:53.920Z,3.80
2018-09-25T09:47:53.900Z,3.60
2018-09-25T09:48:53.879Z,3.80
2018-09-25T09:49:53.851Z,3.60
2018-09-25T09:50:53.834Z,3.60
2018-09-25T09:51:53.811Z,3.60
2018-09-25T09:52:53.783Z,3.60
2018-09-25T09:53:53.760Z,3.30
2018-09-25T09:54:53.737Z,3.60
2018-09-25T09:55:53.714Z,3.30
2018-09-25T09:56:53.694Z,3.20
2018-09-25T09:57:53.669Z,3.10
2018-09-25T09:58:53.647Z,3.00
2018-09-25T09:59:53.625Z,3.30
2018-09-25T10:00:53.601Z,3.00
2018-09-25T10:01:53.578Z,3.20
2018-09-25T10:02:53.556Z,3.00
2018-09-25T10:03:53.533Z,3.00
2018-09-25T10:04:53.511Z,2.80
2018-09-25T10:05:53.488Z,3.10
2018-09-25T10:06:53.555Z,3.60
2018-09-25T10:07:53.443Z,3.10
2018-09-25T10:08:53.421Z,3.10
2018-09-25T10:09:53.399Z,3.00
2018-09-25T10:10:53.375Z,3.10
2018-09-25T10:11:53.353Z,3.40
2018-09-25T10:12:53.332Z,3.40
2018-09-25T10:13:53.308Z,3.10
2018-09-25T10:14:53.306Z,3.00
2018-09-25T10:15:53.263Z,3.20
2018-09-25T10:16:53.261Z,3.00
2018-09-25T10:17:53.238Z,3.80
2018-09-25T10:18:53.254Z,3.10
2018-09-25T10:19:53.194Z,3.10
2018-09-25T10:20:53.171Z,3.40
2018-09-25T10:21:53.147Z,3.30
2018-09-25T10:22:53.125Z,3.40
2018-09-25T10:23:53.103Z,3.10
2018-09-25T10:24:53.081Z,3.20
2018-09-25T10:25:53.057Z,2.90
2018-09-25T10:26:53.038Z,3.10
2018-09-25T10:27:53.013Z,3.10
2018-09-25T10:28:52.991Z,3.00
2018-09-25T10:29:52.967Z,3.20
2018-09-25T10:30:52.945Z,3.60
2018-09-25T10:31:52.923Z,3.50
2018-09-25T10:32:52.901Z,3.40
2018-09-25T10:33:52.926Z,3.10
2018-09-25T10:34:52.857Z,3.30
2018-09-25T10:35:52.834Z,3.50
2018-09-25T10:36:52.811Z,3.40
2018-09-25T10:37:52.788Z,3.50
2018-09-25T10:38:52.766Z,3.40
2018-09-25T10:39:52.743Z,3.60
2018-09-25T10:40:52.739Z,3.40
2018-09-25T10:41:52.699Z,3.00
2018-09-25T10:42:52.680Z,3.60
2018-09-25T10:43:52.656Z,3.20
2018-09-25T10:44:52.632Z,3.40
2018-09-25T10:45:52.609Z,3.70
2018-09-25T10:46:52.589Z,3.50
2018-09-25T10:47:52.564Z,3.60
2018-09-25T10:48:52.543Z,3.40
2018-09-25T10:49:52.581Z,3.80
2018-09-25T10:50:52.499Z,3.40
2018-09-25T10:51:52.478Z,3.90
2018-09-25T10:52:52.454Z,3.60
2018-09-25T10:53:52.431Z,3.40
2018-09-25T10:54:52.410Z,3.50
2018-09-25T10:55:52.496Z,3.60
2018-09-25T10:56:52.365Z,3.00
2018-09-25T10:57:52.342Z,3.80
2018-09-25T10:58:52.319Z,3.50
2018-09-25T10:59:52.298Z,3.60
2018-09-25T11:00:55.278Z,3.40
2018-09-25T11:01:52.253Z,3.60
2018-09-25T11:02:52.306Z,3.30
2018-09-25T11:03:52.209Z,3.40
2018-09-25T11:04:52.188Z,3.50
2018-09-25T11:05:52.165Z,3.80
2018-09-25T11:06:52.894Z,3.60
2018-09-25T11:07:52.121Z,3.60
2018-09-25T11:08:52.106Z,4.20
2018-09-25T11:09:52.079Z,3.70
2018-09-25T11:10:52.055Z,4.20
2018-09-25T11:11:52.033Z,3.80
2018-09-25T11:12:52.013Z,4.00
2018-09-25T11:13:51.990Z,3.70
2018-09-25T11:14:51.968Z,3.60
2018-09-25T11:15:51.947Z,4.00
2018-09-25T11:16:51.925Z,3.90
2018-09-25T11:17:51.905Z,3.70
2018-09-25T11:18:51.880Z,3.90
2018-09-25T11:19:51.859Z,3.70
2018-09-25T11:20:51.841Z,3.50
2018-09-25T11:21:51.814Z,3.70
2018-09-25T11:22:51.793Z,3.10
2018-09-25T11:23:51.771Z,3.40
2018-09-25T11:24:51.750Z,3.20
2018-09-25T11:25:51.728Z,3.10
2018-09-25T11:26:51.705Z,3.30
2018-09-25T11:27:51.683Z,3.30
2018-09-25T11:28:51.662Z,3.00
2018-09-25T11:29:51.639Z,3.20
2018-09-25T11:30:51.618Z,3.30
2018-09-25T11:31:51.596Z,3.30
2018-09-25T11:32:51.575Z,3.40
2018-09-25T11:33:54.555Z,3.50
2018-09-25T11:34:51.531Z,3.50
2018-09-25T11:35:51.512Z,3.60
2018-09-25T11:36:51.487Z,3.60
2018-09-25T11:37:51.465Z,3.20
2018-09-25T11:38:51.443Z,3.00
2018-09-25T11:39:51.425Z,3.20
2018-09-25T11:40:51.413Z,3.50
2018-09-25T11:41:51.378Z,3.40
2018-09-25T11:42:51.357Z,3.00
2018-09-25T11:43:51.339Z,3.20
2018-09-25T11:44:51.314Z,3.00
2018-09-25T11:45:51.321Z,2.80
2018-09-25T11:46:51.430Z,3.40
2018-09-25T11:47:51.251Z,2.90
2018-09-25T11:48:51.227Z,2.70
2018-09-25T11:49:51.233Z,2.80
2018-09-25T11:50:51.183Z,3.20
2018-09-25T11:51:51.162Z,2.80
2018-09-25T11:52:51.153Z,3.00
2018-09-25T11:53:51.119Z,2.80
2018-09-25T11:54:51.096Z,3.20
2018-09-25T11:55:51.075Z,2.80
2018-09-25T11:56:51.054Z,3.20
2018-09-25T11:57:51.031Z,3.10
2018-09-25T11:58:51.010Z,2.70
2018-09-25T11:59:50.989Z,2.90
2018-09-25T12:00:50.967Z,2.90
2018-09-25T12:01:50.945Z,3.10
2018-09-25T12:02:50.924Z,2.60
2018-09-25T12:03:50.903Z,2.90
2018-09-25T12:04:50.882Z,3.00
2018-09-25T12:05:50.861Z,2.90
2018-09-25T12:06:50.838Z,2.70
2018-09-25T12:07:50.819Z,2.50
2018-09-25T12:08:50.795Z,3.00
2018-09-25T12:09:50.772Z,2.80
2018-09-25T12:10:50.758Z,2.70
2018-09-25T12:11:50.729Z,2.90
2018-09-25T12:12:50.708Z,3.00
2018-09-25T12:13:50.748Z,3.20
2018-09-25T12:14:50.665Z,3.10
2018-09-25T12:15:50.645Z,3.10
2018-09-25T12:16:50.623Z,3.40
2018-09-25T12:17:50.601Z,3.50
2018-09-25T12:18:50.581Z,3.50
2018-09-25T12:19:50.565Z,3.30
2018-09-25T12:20:50.538Z,3.70
2018-09-25T12:21:50.516Z,3.80
2018-09-25T12:22:50.494Z,4.50
2018-09-25T12:23:50.473Z,4.00
2018-09-25T12:24:50.453Z,3.80
2018-09-25T12:25:50.430Z,3.70
2018-09-25T12:26:50.415Z,3.90
2018-09-25T12:27:54.895Z,3.80
2018-09-25T12:28:50.370Z,3.80
2018-09-25T12:29:50.348Z,3.90
2018-09-25T12:30:50.324Z,3.90
2018-09-25T12:31:50.303Z,3.50
2018-09-25T12:32:50.298Z,3.80
2018-09-25T12:33:50.266Z,3.40
2018-09-25T12:34:50.239Z,3.80
2018-09-25T12:35:50.218Z,3.90
2018-09-25T12:36:50.197Z,4.10
2018-09-25T12:37:50.175Z,4.10
2018-09-25T12:38:50.155Z,4.20
2018-09-25T12:39:50.133Z,4.50
2018-09-25T12:40:50.154Z,3.70
2018-09-25T12:41:50.093Z,3.50
2018-09-25T12:42:50.069Z,3.30
2018-09-25T12:43:50.048Z,3.80
2018-09-25T12:44:50.031Z,4.80
2018-09-25T12:45:50.005Z,4.00
2018-09-25T12:46:49.984Z,3.20
2018-09-25T12:47:49.964Z,3.40
2018-09-25T12:48:49.941Z,3.00
2018-09-25T12:49:49.920Z,3.10
2018-09-25T12:50:49.899Z,3.90
2018-09-25T12:51:49.878Z,3.60
2018-09-25T12:52:49.856Z,4.00
2018-09-25T12:53:49.836Z,4.00
2018-09-25T12:54:49.814Z,3.80
2018-09-25T12:55:49.793Z,4.00
2018-09-25T12:56:49.772Z,3.60
2018-09-25T12:57:49.751Z,3.40
2018-09-25T12:58:49.729Z,3.60
2018-09-25T12:59:49.708Z,3.70
2018-09-25T13:00:49.689Z,3.70
2018-09-25T13:01:49.666Z,3.30
2018-09-25T13:02:49.647Z,3.10
2018-09-25T13:03:49.647Z,3.20
2018-09-25T13:04:49.605Z,3.40
2018-09-25T13:05:50.331Z,3.20
2018-09-25T13:06:49.559Z,3.20
2018-09-25T13:07:49.538Z,3.00
2018-09-25T13:08:49.518Z,3.20
2018-09-25T13:09:49.498Z,3.00
2018-09-25T13:10:49.474Z,3.20
2018-09-25T13:11:49.453Z,3.10
2018-09-25T13:12:49.432Z,2.90
2018-09-25T13:13:49.410Z,3.10
2018-09-25T13:14:49.390Z,3.40
2018-09-25T13:15:49.372Z,3.30
2018-09-25T13:16:49.348Z,2.80
2018-09-25T13:17:49.326Z,3.10